sensor_id;sensor_type;location;lat;lon;timestamp;P1;durP1;ratioP1;P2;durP2;ratioP2
72882;SDS011;61017;37.812;-122.286;2022-11-27T00:01:14;16.38;;;8.05;;
72882;SDS011;61017;37.812;-122.286;2022-11-27T00:03:06;15.15;;;7.97;;
72882;SDS011;61017;37.812;-122.286;2022-11-27T00:04:56;17.65;;;8.48;;
72882;SDS011;61017;37.812;-122.286;2022-11-27T00:06:46;18.50;;;8.45;;
72882;SDS011;61017;37.812;-122.286;2022-11-27T00:08:36;17.42;;;8.38;;
72882;SDS011;61017;37.812;-122.286;2022-11-27T00:10:26;18.35;;;8.27;;
72882;SDS011;61017;37.812;-122.286;2022-11-27T00:12:16;15.98;;;7.90;;
72882;SDS011;61017;37.812;-122.286;2022-11-27T00:14:07;16.42;;;8.32;;
72882;SDS011;61017;37.812;-122.286;2022-11-27T00:16:00;16.45;;;8.75;;
72882;SDS011;61017;37.812;-122.286;2022-11-27T00:17:51;13.35;;;8.02;;
72882;SDS011;61017;37.812;-122.286;2022-11-27T00:19:41;15.90;;;8.27;;
72882;SDS011;61017;37.812;-122.286;2022-11-27T00:21:32;15.65;;;7.85;;
72882;SDS011;61017;37.812;-122.286;2022-11-27T00:23:23;17.45;;;8.75;;
72882;SDS011;61017;37.812;-122.286;2022-11-27T00:25:14;15.85;;;7.60;;
72882;SDS011;61017;37.812;-122.286;2022-11-27T00:27:04;18.08;;;8.45;;
72882;SDS011;61017;37.812;-122.286;2022-11-27T00:28:54;14.32;;;8.48;;
72882;SDS011;61017;37.812;-122.286;2022-11-27T00:30:45;14.90;;;8.93;;
72882;SDS011;61017;37.812;-122.286;2022-11-27T00:32:35;14.70;;;7.82;;
72882;SDS011;61017;37.812;-122.286;2022-11-27T00:34:25;17.80;;;7.90;;
72882;SDS011;61017;37.812;-122.286;2022-11-27T00:36:15;17.83;;;8.90;;
72882;SDS011;61017;37.812;-122.286;2022-11-27T00:38:05;12.43;;;8.13;;
72882;SDS011;61017;37.812;-122.286;2022-11-27T00:39:56;17.00;;;9.52;;
72882;SDS011;61017;37.812;-122.286;2022-11-27T00:41:45;15.93;;;8.48;;
72882;SDS011;61017;37.812;-122.286;2022-11-27T00:43:35;16.15;;;8.23;;
72882;SDS011;61017;37.812;-122.286;2022-11-27T00:45:26;13.20;;;7.60;;
72882;SDS011;61017;37.812;-122.286;2022-11-27T00:47:17;16.13;;;8.73;;
72882;SDS011;61017;37.812;-122.286;2022-11-27T00:49:09;14.20;;;8.32;;
72882;SDS011;61017;37.812;-122.286;2022-11-27T00:51:02;18.17;;;7.95;;
72882;SDS011;61017;37.812;-122.286;2022-11-27T00:52:55;17.50;;;8.63;;
72882;SDS011;61017;37.812;-122.286;2022-11-27T00:54:45;14.80;;;8.00;;
72882;SDS011;61017;37.812;-122.286;2022-11-27T00:56:36;17.73;;;8.50;;
72882;SDS011;61017;37.812;-122.286;2022-11-27T00:58:27;14.50;;;8.55;;
72882;SDS011;61017;37.812;-122.286;2022-11-27T01:00:17;16.70;;;8.85;;
72882;SDS011;61017;37.812;-122.286;2022-11-27T01:02:08;18.08;;;8.25;;
72882;SDS011;61017;37.812;-122.286;2022-11-27T01:03:58;14.48;;;8.73;;
72882;SDS011;61017;37.812;-122.286;2022-11-27T01:05:50;15.05;;;7.80;;
72882;SDS011;61017;37.812;-122.286;2022-11-27T01:07:42;16.80;;;9.00;;
72882;SDS011;61017;37.812;-122.286;2022-11-27T01:09:33;14.63;;;8.65;;
72882;SDS011;61017;37.812;-122.286;2022-11-27T01:11:24;13.13;;;8.20;;
72882;SDS011;61017;37.812;-122.286;2022-11-27T01:13:17;14.10;;;9.07;;
72882;SDS011;61017;37.812;-122.286;2022-11-27T01:15:07;14.77;;;8.00;;
72882;SDS011;61017;37.812;-122.286;2022-11-27T01:16:58;14.00;;;7.85;;
72882;SDS011;61017;37.812;-122.286;2022-11-27T01:18:49;15.00;;;7.82;;
72882;SDS011;61017;37.812;-122.286;2022-11-27T01:20:41;15.02;;;7.40;;
72882;SDS011;61017;37.812;-122.286;2022-11-27T01:22:31;14.40;;;8.07;;
72882;SDS011;61017;37.812;-122.286;2022-11-27T01:24:22;13.65;;;8.18;;
72882;SDS011;61017;37.812;-122.286;2022-11-27T01:26:12;12.48;;;7.30;;
72882;SDS011;61017;37.812;-122.286;2022-11-27T01:28:02;15.55;;;8.32;;
72882;SDS011;61017;37.812;-122.286;2022-11-27T01:29:53;15.13;;;7.72;;
72882;SDS011;61017;37.812;-122.286;2022-11-27T01:31:46;16.63;;;7.83;;
72882;SDS011;61017;37.812;-122.286;2022-11-27T01:33:36;18.80;;;8.05;;
72882;SDS011;61017;37.812;-122.286;2022-11-27T01:35:26;14.68;;;7.63;;
72882;SDS011;61017;37.812;-122.286;2022-11-27T01:37:16;18.85;;;7.85;;
72882;SDS011;61017;37.812;-122.286;2022-11-27T01:39:10;14.25;;;7.63;;
72882;SDS011;61017;37.812;-122.286;2022-11-27T01:41:18;17.25;;;7.60;;
72882;SDS011;61017;37.812;-122.286;2022-11-27T01:43:14;16.25;;;7.28;;
72882;SDS011;61017;37.812;-122.286;2022-11-27T01:45:04;22.27;;;7.78;;
72882;SDS011;61017;37.812;-122.286;2022-11-27T01:46:59;19.02;;;7.70;;
72882;SDS011;61017;37.812;-122.286;2022-11-27T01:50:57;14.23;;;8.13;;
72882;SDS011;61017;37.812;-122.286;2022-11-27T01:52:53;16.65;;;7.55;;
72882;SDS011;61017;37.812;-122.286;2022-11-27T01:54:55;12.38;;;7.15;;
72882;SDS011;61017;37.812;-122.286;2022-11-27T01:56:50;15.35;;;7.40;;
72882;SDS011;61017;37.812;-122.286;2022-11-27T01:58:46;17.98;;;7.18;;
72882;SDS011;61017;37.812;-122.286;2022-11-27T02:00:39;14.18;;;7.47;;
72882;SDS011;61017;37.812;-122.286;2022-11-27T02:02:30;13.32;;;6.93;;
72882;SDS011;61017;37.812;-122.286;2022-11-27T02:04:21;12.15;;;6.93;;
72882;SDS011;61017;37.812;-122.286;2022-11-27T02:06:12;16.10;;;7.63;;
72882;SDS011;61017;37.812;-122.286;2022-11-27T02:08:04;12.82;;;7.32;;
72882;SDS011;61017;37.812;-122.286;2022-11-27T02:09:57;11.60;;;6.82;;
72882;SDS011;61017;37.812;-122.286;2022-11-27T02:11:55;13.85;;;6.53;;
72882;SDS011;61017;37.812;-122.286;2022-11-27T02:14:15;11.90;;;7.28;;
72882;SDS011;61017;37.812;-122.286;2022-11-27T02:16:35;13.57;;;7.28;;
72882;SDS011;61017;37.812;-122.286;2022-11-27T02:20:46;14.73;;;6.97;;
72882;SDS011;61017;37.812;-122.286;2022-11-27T02:29:40;10.60;;;6.65;;
72882;SDS011;61017;37.812;-122.286;2022-11-27T02:33:57;11.85;;;6.90;;
72882;SDS011;61017;37.812;-122.286;2022-11-27T02:36:05;13.75;;;6.47;;
72882;SDS011;61017;37.812;-122.286;2022-11-27T02:38:01;12.10;;;6.40;;
72882;SDS011;61017;37.812;-122.286;2022-11-27T02:41:53;14.77;;;6.70;;
72882;SDS011;61017;37.812;-122.286;2022-11-27T02:43:55;14.32;;;6.82;;
72882;SDS011;61017;37.812;-122.286;2022-11-27T02:45:48;14.55;;;6.85;;
72882;SDS011;61017;37.812;-122.286;2022-11-27T02:47:41;14.80;;;6.13;;
72882;SDS011;61017;37.812;-122.286;2022-11-27T02:49:34;17.08;;;6.88;;
72882;SDS011;61017;37.812;-122.286;2022-11-27T02:51:27;15.48;;;6.80;;
72882;SDS011;61017;37.812;-122.286;2022-11-27T02:53:32;16.95;;;7.18;;
72882;SDS011;61017;37.812;-122.286;2022-11-27T02:55:29;13.27;;;6.90;;
72882;SDS011;61017;37.812;-122.286;2022-11-27T02:57:22;15.27;;;6.95;;
72882;SDS011;61017;37.812;-122.286;2022-11-27T02:59:14;14.40;;;6.90;;
72882;SDS011;61017;37.812;-122.286;2022-11-27T03:01:06;14.77;;;6.65;;
72882;SDS011;61017;37.812;-122.286;2022-11-27T03:02:59;13.90;;;6.75;;
72882;SDS011;61017;37.812;-122.286;2022-11-27T03:04:53;11.80;;;6.13;;
72882;SDS011;61017;37.812;-122.286;2022-11-27T03:06:47;12.57;;;6.13;;
72882;SDS011;61017;37.812;-122.286;2022-11-27T03:08:45;13.18;;;6.20;;
72882;SDS011;61017;37.812;-122.286;2022-11-27T03:12:51;11.43;;;5.93;;
72882;SDS011;61017;37.812;-122.286;2022-11-27T03:14:41;11.18;;;5.65;;
72882;SDS011;61017;37.812;-122.286;2022-11-27T03:16:47;9.90;;;5.40;;
72882;SDS011;61017;37.812;-122.286;2022-11-27T03:18:51;10.65;;;5.40;;
72882;SDS011;61017;37.812;-122.286;2022-11-27T03:22:47;11.10;;;5.53;;
72882;SDS011;61017;37.812;-122.286;2022-11-27T03:24:37;10.60;;;5.90;;
72882;SDS011;61017;37.812;-122.286;2022-11-27T03:26:29;10.65;;;5.40;;
72882;SDS011;61017;37.812;-122.286;2022-11-27T03:28:21;10.50;;;5.90;;
72882;SDS011;61017;37.812;-122.286;2022-11-27T03:30:12;9.80;;;5.50;;
72882;SDS011;61017;37.812;-122.286;2022-11-27T03:32:02;11.32;;;5.65;;
72882;SDS011;61017;37.812;-122.286;2022-11-27T03:33:53;13.38;;;5.90;;
72882;SDS011;61017;37.812;-122.286;2022-11-27T03:35:43;9.02;;;5.40;;
72882;SDS011;61017;37.812;-122.286;2022-11-27T03:37:35;10.90;;;6.30;;
72882;SDS011;61017;37.812;-122.286;2022-11-27T03:39:25;11.32;;;5.97;;
72882;SDS011;61017;37.812;-122.286;2022-11-27T03:41:19;13.10;;;5.82;;
72882;SDS011;61017;37.812;-122.286;2022-11-27T03:43:25;14.73;;;5.80;;
72882;SDS011;61017;37.812;-122.286;2022-11-27T03:50:20;15.13;;;5.95;;
72882;SDS011;61017;37.812;-122.286;2022-11-27T03:52:15;12.90;;;6.15;;
72882;SDS011;61017;37.812;-122.286;2022-11-27T03:54:20;13.77;;;5.70;;
72882;SDS011;61017;37.812;-122.286;2022-11-27T03:58:31;9.07;;;5.47;;
72882;SDS011;61017;37.812;-122.286;2022-11-27T04:00:42;10.25;;;5.72;;
72882;SDS011;61017;37.812;-122.286;2022-11-27T04:02:44;10.15;;;5.57;;
72882;SDS011;61017;37.812;-122.286;2022-11-27T04:04:39;9.45;;;5.78;;
72882;SDS011;61017;37.812;-122.286;2022-11-27T04:06:32;9.52;;;5.50;;
72882;SDS011;61017;37.812;-122.286;2022-11-27T04:08:22;14.80;;;6.32;;
72882;SDS011;61017;37.812;-122.286;2022-11-27T04:10:13;11.43;;;6.20;;
72882;SDS011;61017;37.812;-122.286;2022-11-27T04:12:03;11.07;;;5.70;;
72882;SDS011;61017;37.812;-122.286;2022-11-27T04:13:53;12.02;;;6.32;;
72882;SDS011;61017;37.812;-122.286;2022-11-27T04:15:43;11.23;;;5.97;;
72882;SDS011;61017;37.812;-122.286;2022-11-27T04:17:33;11.23;;;6.47;;
72882;SDS011;61017;37.812;-122.286;2022-11-27T04:19:23;12.65;;;6.53;;
72882;SDS011;61017;37.812;-122.286;2022-11-27T04:21:13;10.98;;;6.15;;
72882;SDS011;61017;37.812;-122.286;2022-11-27T04:23:04;12.65;;;6.03;;
72882;SDS011;61017;37.812;-122.286;2022-11-27T04:24:53;11.43;;;6.13;;
72882;SDS011;61017;37.812;-122.286;2022-11-27T04:26:43;10.82;;;6.20;;
72882;SDS011;61017;37.812;-122.286;2022-11-27T04:28:33;11.82;;;6.30;;
72882;SDS011;61017;37.812;-122.286;2022-11-27T04:30:23;14.02;;;6.32;;
72882;SDS011;61017;37.812;-122.286;2022-11-27T04:32:13;10.93;;;6.30;;
72882;SDS011;61017;37.812;-122.286;2022-11-27T04:34:03;16.55;;;6.93;;
72882;SDS011;61017;37.812;-122.286;2022-11-27T04:35:54;13.40;;;6.72;;
72882;SDS011;61017;37.812;-122.286;2022-11-27T04:37:44;14.18;;;6.80;;
72882;SDS011;61017;37.812;-122.286;2022-11-27T04:39:34;14.50;;;7.32;;
72882;SDS011;61017;37.812;-122.286;2022-11-27T04:41:24;11.18;;;6.75;;
72882;SDS011;61017;37.812;-122.286;2022-11-27T04:43:15;12.73;;;6.85;;
72882;SDS011;61017;37.812;-122.286;2022-11-27T04:45:05;14.88;;;6.50;;
72882;SDS011;61017;37.812;-122.286;2022-11-27T04:46:57;13.88;;;7.18;;
72882;SDS011;61017;37.812;-122.286;2022-11-27T04:48:47;19.35;;;6.97;;
72882;SDS011;61017;37.812;-122.286;2022-11-27T04:50:37;18.15;;;6.85;;
72882;SDS011;61017;37.812;-122.286;2022-11-27T04:52:27;20.15;;;7.20;;
72882;SDS011;61017;37.812;-122.286;2022-11-27T04:54:20;19.75;;;7.45;;
72882;SDS011;61017;37.812;-122.286;2022-11-27T04:56:10;21.58;;;7.18;;
72882;SDS011;61017;37.812;-122.286;2022-11-27T04:58:00;23.88;;;7.75;;
72882;SDS011;61017;37.812;-122.286;2022-11-27T04:59:50;24.00;;;7.43;;
72882;SDS011;61017;37.812;-122.286;2022-11-27T05:01:42;15.50;;;7.32;;
72882;SDS011;61017;37.812;-122.286;2022-11-27T05:03:32;17.98;;;7.78;;
72882;SDS011;61017;37.812;-122.286;2022-11-27T05:05:26;18.23;;;7.53;;
72882;SDS011;61017;37.812;-122.286;2022-11-27T05:07:16;16.23;;;7.25;;
72882;SDS011;61017;37.812;-122.286;2022-11-27T05:09:08;19.13;;;7.53;;
72882;SDS011;61017;37.812;-122.286;2022-11-27T05:11:02;14.45;;;7.38;;
72882;SDS011;61017;37.812;-122.286;2022-11-27T05:12:54;17.90;;;7.53;;
72882;SDS011;61017;37.812;-122.286;2022-11-27T05:14:44;14.93;;;7.45;;
72882;SDS011;61017;37.812;-122.286;2022-11-27T05:16:35;17.20;;;8.00;;
72882;SDS011;61017;37.812;-122.286;2022-11-27T05:18:26;14.85;;;8.18;;
72882;SDS011;61017;37.812;-122.286;2022-11-27T05:20:16;16.40;;;8.05;;
72882;SDS011;61017;37.812;-122.286;2022-11-27T05:22:06;14.82;;;7.45;;
72882;SDS011;61017;37.812;-122.286;2022-11-27T05:23:56;15.80;;;8.40;;
72882;SDS011;61017;37.812;-122.286;2022-11-27T05:25:46;15.90;;;7.90;;
72882;SDS011;61017;37.812;-122.286;2022-11-27T05:27:36;13.40;;;8.23;;
72882;SDS011;61017;37.812;-122.286;2022-11-27T05:29:26;16.88;;;8.30;;
72882;SDS011;61017;37.812;-122.286;2022-11-27T05:31:16;15.45;;;8.05;;
72882;SDS011;61017;37.812;-122.286;2022-11-27T05:33:06;15.88;;;8.65;;
72882;SDS011;61017;37.812;-122.286;2022-11-27T05:34:56;15.73;;;8.52;;
72882;SDS011;61017;37.812;-122.286;2022-11-27T05:36:46;14.52;;;8.32;;
72882;SDS011;61017;37.812;-122.286;2022-11-27T05:38:36;14.40;;;8.32;;
72882;SDS011;61017;37.812;-122.286;2022-11-27T05:40:28;15.13;;;8.02;;
72882;SDS011;61017;37.812;-122.286;2022-11-27T05:42:18;17.65;;;8.70;;
72882;SDS011;61017;37.812;-122.286;2022-11-27T05:44:09;14.13;;;8.82;;
72882;SDS011;61017;37.812;-122.286;2022-11-27T05:46:08;16.17;;;8.43;;
72882;SDS011;61017;37.812;-122.286;2022-11-27T05:48:00;15.65;;;8.57;;
72882;SDS011;61017;37.812;-122.286;2022-11-27T05:49:51;18.25;;;9.10;;
72882;SDS011;61017;37.812;-122.286;2022-11-27T05:51:41;18.58;;;9.50;;
72882;SDS011;61017;37.812;-122.286;2022-11-27T05:53:32;18.02;;;9.35;;
72882;SDS011;61017;37.812;-122.286;2022-11-27T05:55:22;16.85;;;9.10;;
72882;SDS011;61017;37.812;-122.286;2022-11-27T05:57:12;17.10;;;9.00;;
72882;SDS011;61017;37.812;-122.286;2022-11-27T05:59:03;15.10;;;8.98;;
72882;SDS011;61017;37.812;-122.286;2022-11-27T06:00:52;14.35;;;9.13;;
72882;SDS011;61017;37.812;-122.286;2022-11-27T06:02:44;18.30;;;9.75;;
72882;SDS011;61017;37.812;-122.286;2022-11-27T06:04:34;14.48;;;8.70;;
72882;SDS011;61017;37.812;-122.286;2022-11-27T06:06:24;16.65;;;9.23;;
72882;SDS011;61017;37.812;-122.286;2022-11-27T06:08:14;14.80;;;9.32;;
72882;SDS011;61017;37.812;-122.286;2022-11-27T06:10:04;18.58;;;9.77;;
72882;SDS011;61017;37.812;-122.286;2022-11-27T06:11:54;19.23;;;9.43;;
72882;SDS011;61017;37.812;-122.286;2022-11-27T06:13:45;17.52;;;9.63;;
72882;SDS011;61017;37.812;-122.286;2022-11-27T06:15:36;16.80;;;9.48;;
72882;SDS011;61017;37.812;-122.286;2022-11-27T06:17:27;15.52;;;9.70;;
72882;SDS011;61017;37.812;-122.286;2022-11-27T06:19:17;16.42;;;9.18;;
72882;SDS011;61017;37.812;-122.286;2022-11-27T06:21:08;18.55;;;9.88;;
72882;SDS011;61017;37.812;-122.286;2022-11-27T06:22:59;14.73;;;9.50;;
72882;SDS011;61017;37.812;-122.286;2022-11-27T06:24:49;17.90;;;10.20;;
72882;SDS011;61017;37.812;-122.286;2022-11-27T06:26:39;14.77;;;9.45;;
72882;SDS011;61017;37.812;-122.286;2022-11-27T06:28:30;19.92;;;9.90;;
72882;SDS011;61017;37.812;-122.286;2022-11-27T06:30:20;17.15;;;9.82;;
72882;SDS011;61017;37.812;-122.286;2022-11-27T06:32:10;16.35;;;9.35;;
72882;SDS011;61017;37.812;-122.286;2022-11-27T06:34:06;16.13;;;10.27;;
72882;SDS011;61017;37.812;-122.286;2022-11-27T06:35:56;17.58;;;9.70;;
72882;SDS011;61017;37.812;-122.286;2022-11-27T06:37:46;16.00;;;9.85;;
72882;SDS011;61017;37.812;-122.286;2022-11-27T06:39:36;17.63;;;10.07;;
72882;SDS011;61017;37.812;-122.286;2022-11-27T06:41:30;17.75;;;9.82;;
72882;SDS011;61017;37.812;-122.286;2022-11-27T06:43:22;16.17;;;10.57;;
72882;SDS011;61017;37.812;-122.286;2022-11-27T06:45:12;17.15;;;9.43;;
72882;SDS011;61017;37.812;-122.286;2022-11-27T06:47:02;15.77;;;9.77;;
72882;SDS011;61017;37.812;-122.286;2022-11-27T06:48:53;19.48;;;9.88;;
72882;SDS011;61017;37.812;-122.286;2022-11-27T06:50:44;17.73;;;9.95;;
72882;SDS011;61017;37.812;-122.286;2022-11-27T06:52:34;15.63;;;9.52;;
72882;SDS011;61017;37.812;-122.286;2022-11-27T06:54:25;16.40;;;10.07;;
72882;SDS011;61017;37.812;-122.286;2022-11-27T06:56:18;17.38;;;10.25;;
72882;SDS011;61017;37.812;-122.286;2022-11-27T06:58:11;16.85;;;9.85;;
72882;SDS011;61017;37.812;-122.286;2022-11-27T07:00:01;17.13;;;10.27;;
72882;SDS011;61017;37.812;-122.286;2022-11-27T07:01:51;16.85;;;9.55;;
72882;SDS011;61017;37.812;-122.286;2022-11-27T07:03:41;19.00;;;10.63;;
72882;SDS011;61017;37.812;-122.286;2022-11-27T07:05:33;18.33;;;10.35;;
72882;SDS011;61017;37.812;-122.286;2022-11-27T07:07:26;17.35;;;9.77;;
72882;SDS011;61017;37.812;-122.286;2022-11-27T07:09:16;16.52;;;9.98;;
72882;SDS011;61017;37.812;-122.286;2022-11-27T07:11:11;20.20;;;10.75;;
72882;SDS011;61017;37.812;-122.286;2022-11-27T07:13:02;16.00;;;10.30;;
72882;SDS011;61017;37.812;-122.286;2022-11-27T07:14:53;17.30;;;10.18;;
72882;SDS011;61017;37.812;-122.286;2022-11-27T07:16:44;18.88;;;10.35;;
72882;SDS011;61017;37.812;-122.286;2022-11-27T07:18:35;17.45;;;10.60;;
72882;SDS011;61017;37.812;-122.286;2022-11-27T07:20:26;16.65;;;10.30;;
72882;SDS011;61017;37.812;-122.286;2022-11-27T07:22:16;20.55;;;10.05;;
72882;SDS011;61017;37.812;-122.286;2022-11-27T07:24:06;18.98;;;10.55;;
72882;SDS011;61017;37.812;-122.286;2022-11-27T07:25:57;17.83;;;10.52;;
72882;SDS011;61017;37.812;-122.286;2022-11-27T07:27:47;16.30;;;9.95;;
72882;SDS011;61017;37.812;-122.286;2022-11-27T07:29:37;17.05;;;10.40;;
72882;SDS011;61017;37.812;-122.286;2022-11-27T07:31:27;19.10;;;10.05;;
72882;SDS011;61017;37.812;-122.286;2022-11-27T07:33:20;18.35;;;10.52;;
72882;SDS011;61017;37.812;-122.286;2022-11-27T07:35:10;18.15;;;10.15;;
72882;SDS011;61017;37.812;-122.286;2022-11-27T07:37:01;15.68;;;10.23;;
72882;SDS011;61017;37.812;-122.286;2022-11-27T07:38:53;17.73;;;10.40;;
72882;SDS011;61017;37.812;-122.286;2022-11-27T07:40:44;16.95;;;10.75;;
72882;SDS011;61017;37.812;-122.286;2022-11-27T07:42:33;17.35;;;10.30;;
72882;SDS011;61017;37.812;-122.286;2022-11-27T07:44:24;17.42;;;10.73;;
72882;SDS011;61017;37.812;-122.286;2022-11-27T07:46:18;16.75;;;10.60;;
72882;SDS011;61017;37.812;-122.286;2022-11-27T07:48:10;18.67;;;11.20;;
72882;SDS011;61017;37.812;-122.286;2022-11-27T07:50:00;15.93;;;10.25;;
72882;SDS011;61017;37.812;-122.286;2022-11-27T07:51:50;18.55;;;10.85;;
72882;SDS011;61017;37.812;-122.286;2022-11-27T07:53:40;15.73;;;10.20;;
72882;SDS011;61017;37.812;-122.286;2022-11-27T07:55:31;18.13;;;10.65;;
72882;SDS011;61017;37.812;-122.286;2022-11-27T07:57:20;20.17;;;10.77;;
72882;SDS011;61017;37.812;-122.286;2022-11-27T07:59:10;18.92;;;10.60;;
72882;SDS011;61017;37.812;-122.286;2022-11-27T08:01:07;16.83;;;10.17;;
72882;SDS011;61017;37.812;-122.286;2022-11-27T08:02:59;17.90;;;10.90;;
72882;SDS011;61017;37.812;-122.286;2022-11-27T08:04:50;17.80;;;10.90;;
72882;SDS011;61017;37.812;-122.286;2022-11-27T08:06:42;16.15;;;10.30;;
72882;SDS011;61017;37.812;-122.286;2022-11-27T08:08:32;17.13;;;10.48;;
72882;SDS011;61017;37.812;-122.286;2022-11-27T08:10:22;18.52;;;10.60;;
72882;SDS011;61017;37.812;-122.286;2022-11-27T08:12:13;16.30;;;10.57;;
72882;SDS011;61017;37.812;-122.286;2022-11-27T08:14:04;19.50;;;11.65;;
72882;SDS011;61017;37.812;-122.286;2022-11-27T08:15:57;15.40;;;10.13;;
72882;SDS011;61017;37.812;-122.286;2022-11-27T08:17:47;17.48;;;11.02;;
72882;SDS011;61017;37.812;-122.286;2022-11-27T08:19:37;17.83;;;10.85;;
72882;SDS011;61017;37.812;-122.286;2022-11-27T08:21:28;15.30;;;10.02;;
72882;SDS011;61017;37.812;-122.286;2022-11-27T08:23:18;18.00;;;10.70;;
72882;SDS011;61017;37.812;-122.286;2022-11-27T08:25:08;18.17;;;10.73;;
72882;SDS011;61017;37.812;-122.286;2022-11-27T08:26:58;15.90;;;11.00;;
72882;SDS011;61017;37.812;-122.286;2022-11-27T08:28:50;15.85;;;10.30;;
72882;SDS011;61017;37.812;-122.286;2022-11-27T08:30:40;17.20;;;10.70;;
72882;SDS011;61017;37.812;-122.286;2022-11-27T08:32:30;18.35;;;10.85;;
72882;SDS011;61017;37.812;-122.286;2022-11-27T08:34:21;17.05;;;10.68;;
72882;SDS011;61017;37.812;-122.286;2022-11-27T08:36:11;16.95;;;10.00;;
72882;SDS011;61017;37.812;-122.286;2022-11-27T08:38:01;15.05;;;10.57;;
72882;SDS011;61017;37.812;-122.286;2022-11-27T08:39:51;15.70;;;10.25;;
72882;SDS011;61017;37.812;-122.286;2022-11-27T08:41:41;16.25;;;10.15;;
72882;SDS011;61017;37.812;-122.286;2022-11-27T08:43:32;17.52;;;10.60;;
72882;SDS011;61017;37.812;-122.286;2022-11-27T08:45:24;17.08;;;10.18;;
72882;SDS011;61017;37.812;-122.286;2022-11-27T08:47:16;17.08;;;9.88;;
72882;SDS011;61017;37.812;-122.286;2022-11-27T08:49:06;20.73;;;10.43;;
72882;SDS011;61017;37.812;-122.286;2022-11-27T08:50:56;18.65;;;10.80;;
72882;SDS011;61017;37.812;-122.286;2022-11-27T08:52:52;16.77;;;10.80;;
72882;SDS011;61017;37.812;-122.286;2022-11-27T08:54:42;16.50;;;10.40;;
72882;SDS011;61017;37.812;-122.286;2022-11-27T08:56:33;17.77;;;10.07;;
72882;SDS011;61017;37.812;-122.286;2022-11-27T08:58:24;15.82;;;10.57;;
72882;SDS011;61017;37.812;-122.286;2022-11-27T09:00:14;16.33;;;10.40;;
72882;SDS011;61017;37.812;-122.286;2022-11-27T09:02:04;15.90;;;10.07;;
72882;SDS011;61017;37.812;-122.286;2022-11-27T09:03:54;15.48;;;10.63;;
72882;SDS011;61017;37.812;-122.286;2022-11-27T09:05:45;18.08;;;10.77;;
72882;SDS011;61017;37.812;-122.286;2022-11-27T09:07:36;16.25;;;10.40;;
72882;SDS011;61017;37.812;-122.286;2022-11-27T09:09:26;18.33;;;10.15;;
72882;SDS011;61017;37.812;-122.286;2022-11-27T09:11:19;15.80;;;10.40;;
72882;SDS011;61017;37.812;-122.286;2022-11-27T09:13:12;15.65;;;10.45;;
72882;SDS011;61017;37.812;-122.286;2022-11-27T09:15:02;17.58;;;10.50;;
72882;SDS011;61017;37.812;-122.286;2022-11-27T09:16:56;14.88;;;10.07;;
72882;SDS011;61017;37.812;-122.286;2022-11-27T09:18:48;15.95;;;10.23;;
72882;SDS011;61017;37.812;-122.286;2022-11-27T09:20:40;16.05;;;10.32;;
72882;SDS011;61017;37.812;-122.286;2022-11-27T09:22:30;16.02;;;10.35;;
72882;SDS011;61017;37.812;-122.286;2022-11-27T09:24:22;15.13;;;9.77;;
72882;SDS011;61017;37.812;-122.286;2022-11-27T09:26:14;18.67;;;10.13;;
72882;SDS011;61017;37.812;-122.286;2022-11-27T09:28:08;18.50;;;10.95;;
72882;SDS011;61017;37.812;-122.286;2022-11-27T09:29:58;15.18;;;9.98;;
72882;SDS011;61017;37.812;-122.286;2022-11-27T09:31:49;17.77;;;10.55;;
72882;SDS011;61017;37.812;-122.286;2022-11-27T09:33:39;16.73;;;10.73;;
72882;SDS011;61017;37.812;-122.286;2022-11-27T09:35:30;16.80;;;10.40;;
72882;SDS011;61017;37.812;-122.286;2022-11-27T09:37:20;16.05;;;10.23;;
72882;SDS011;61017;37.812;-122.286;2022-11-27T09:39:10;16.55;;;10.38;;
72882;SDS011;61017;37.812;-122.286;2022-11-27T09:41:14;17.85;;;10.55;;
72882;SDS011;61017;37.812;-122.286;2022-11-27T09:43:12;16.45;;;9.82;;
72882;SDS011;61017;37.812;-122.286;2022-11-27T09:45:07;16.10;;;10.25;;
72882;SDS011;61017;37.812;-122.286;2022-11-27T09:49:21;16.73;;;10.32;;
72882;SDS011;61017;37.812;-122.286;2022-11-27T09:53:55;16.17;;;10.50;;
72882;SDS011;61017;37.812;-122.286;2022-11-27T09:55:54;15.43;;;10.50;;
72882;SDS011;61017;37.812;-122.286;2022-11-27T09:59:50;17.45;;;11.00;;
72882;SDS011;61017;37.812;-122.286;2022-11-27T10:01:42;17.73;;;10.90;;
72882;SDS011;61017;37.812;-122.286;2022-11-27T10:03:32;16.85;;;10.55;;
72882;SDS011;61017;37.812;-122.286;2022-11-27T10:05:24;18.60;;;10.82;;
72882;SDS011;61017;37.812;-122.286;2022-11-27T10:07:40;16.00;;;10.23;;
72882;SDS011;61017;37.812;-122.286;2022-11-27T10:12:21;17.63;;;11.10;;
72882;SDS011;61017;37.812;-122.286;2022-11-27T10:18:53;18.25;;;10.77;;
72882;SDS011;61017;37.812;-122.286;2022-11-27T10:20:54;17.52;;;10.93;;
72882;SDS011;61017;37.812;-122.286;2022-11-27T10:23:09;21.08;;;10.77;;
72882;SDS011;61017;37.812;-122.286;2022-11-27T10:27:43;20.90;;;11.60;;
72882;SDS011;61017;37.812;-122.286;2022-11-27T10:29:52;18.75;;;10.55;;
72882;SDS011;61017;37.812;-122.286;2022-11-27T10:31:51;19.58;;;10.80;;
72882;SDS011;61017;37.812;-122.286;2022-11-27T10:33:47;17.20;;;10.23;;
72882;SDS011;61017;37.812;-122.286;2022-11-27T10:35:41;19.15;;;11.18;;
72882;SDS011;61017;37.812;-122.286;2022-11-27T10:37:40;24.20;;;11.40;;
72882;SDS011;61017;37.812;-122.286;2022-11-27T10:40:02;17.05;;;11.30;;
72882;SDS011;61017;37.812;-122.286;2022-11-27T10:42:06;17.10;;;10.23;;
72882;SDS011;61017;37.812;-122.286;2022-11-27T10:44:27;18.23;;;10.77;;
72882;SDS011;61017;37.812;-122.286;2022-11-27T10:46:22;19.85;;;10.85;;
72882;SDS011;61017;37.812;-122.286;2022-11-27T10:48:16;16.60;;;10.70;;
72882;SDS011;61017;37.812;-122.286;2022-11-27T10:50:12;17.20;;;10.63;;
72882;SDS011;61017;37.812;-122.286;2022-11-27T10:52:03;16.90;;;10.13;;
72882;SDS011;61017;37.812;-122.286;2022-11-27T10:53:54;19.45;;;10.52;;
72882;SDS011;61017;37.812;-122.286;2022-11-27T10:58:04;18.50;;;10.70;;
72882;SDS011;61017;37.812;-122.286;2022-11-27T11:00:11;16.42;;;10.30;;
72882;SDS011;61017;37.812;-122.286;2022-11-27T11:02:28;16.52;;;9.77;;
72882;SDS011;61017;37.812;-122.286;2022-11-27T11:04:26;16.73;;;10.45;;
72882;SDS011;61017;37.812;-122.286;2022-11-27T11:06:19;17.90;;;11.05;;
72882;SDS011;61017;37.812;-122.286;2022-11-27T11:08:18;15.60;;;10.20;;
72882;SDS011;61017;37.812;-122.286;2022-11-27T11:10:21;17.23;;;10.32;;
72882;SDS011;61017;37.812;-122.286;2022-11-27T11:12:23;17.15;;;10.70;;
72882;SDS011;61017;37.812;-122.286;2022-11-27T11:14:23;17.63;;;10.63;;
72882;SDS011;61017;37.812;-122.286;2022-11-27T11:16:22;14.77;;;10.05;;
72882;SDS011;61017;37.812;-122.286;2022-11-27T11:18:18;16.10;;;10.13;;
72882;SDS011;61017;37.812;-122.286;2022-11-27T11:20:28;15.25;;;10.07;;
72882;SDS011;61017;37.812;-122.286;2022-11-27T11:22:18;18.73;;;10.52;;
72882;SDS011;61017;37.812;-122.286;2022-11-27T11:24:13;19.02;;;9.82;;